Suez, Egypt
Current Conditions -  °F | °C
As of 5:00 PM on Wednesday 26 Nov 2014 (Local Time) from HECA Reporting Station
Few Clouds Few Clouds  
Wind Chill: 64°   Ceiling: Unl
Heat Index: 64°   Visibility: 6mi
Dew Point: 46°   Wind: 8mph
Humidity: 52%   Direction: 300°WNW
Pressure: 30.03"   Gusts: NA
Location:  29.58°N, 32.33°E
Report Text: HECA 261500Z 30007KT 9999 FEW025 OV070 18/08 Q1017 NOSIG
Loading
Personal Weather Stations






























Interactive Weather Map New forecast layout! Learn more

10-Day Weather Forecast

Advertisements
Track Severe Weather on mobile